sensor_id;sensor_type;location;lat;lon;timestamp;pressure;altitude;pressure_sealevel;temperature
62932;BMP280;49037;41.898;25.004;2023-06-26T07:01:26;96098.44;;;22.59
62932;BMP280;49037;41.898;25.004;2023-06-26T07:16:59;96098.72;;;23.38
62932;BMP280;49037;41.898;25.004;2023-06-26T07:19:41;96094.16;;;23.25
62932;BMP280;49037;41.898;25.004;2023-06-26T07:22:09;96114.97;;;23.00
62932;BMP280;49037;41.898;25.004;2023-06-26T07:25:33;96118.75;;;22.91
62932;BMP280;49037;41.898;25.004;2023-06-26T07:31:32;96120.06;;;22.73
62932;BMP280;49037;41.898;25.004;2023-06-26T07:37:38;96120.16;;;22.92
62932;BMP280;49037;41.898;25.004;2023-06-26T07:40:32;96105.66;;;23.05
62932;BMP280;49037;41.898;25.004;2023-06-26T07:43:24;96122.00;;;23.05
62932;BMP280;49037;41.898;25.004;2023-06-26T07:45:49;96120.94;;;23.14
62932;BMP280;49037;41.898;25.004;2023-06-26T07:48:42;96122.88;;;23.28
62932;BMP280;49037;41.898;25.004;2023-06-26T07:51:35;96121.47;;;23.45
62932;BMP280;49037;41.898;25.004;2023-06-26T07:54:27;96121.94;;;23.78
62932;BMP280;49037;41.898;25.004;2023-06-26T07:57:08;96111.16;;;24.01
62932;BMP280;49037;41.898;25.004;2023-06-26T08:00:02;96117.28;;;24.21
62932;BMP280;49037;41.898;25.004;2023-06-26T08:02:58;96113.53;;;24.10
62932;BMP280;49037;41.898;25.004;2023-06-26T08:05:48;96116.03;;;24.04
62932;BMP280;49037;41.898;25.004;2023-06-26T08:08:57;96120.94;;;24.08
62932;BMP280;49037;41.898;25.004;2023-06-26T08:11:28;96130.31;;;24.22
62932;BMP280;49037;41.898;25.004;2023-06-26T08:13:53;96122.69;;;24.40
62932;BMP280;49037;41.898;25.004;2023-06-26T08:16:54;96119.88;;;24.59
62932;BMP280;49037;41.898;25.004;2023-06-26T08:19:36;96130.34;;;24.88
62932;BMP280;49037;41.898;25.004;2023-06-26T08:22:10;96125.88;;;24.98
62932;BMP280;49037;41.898;25.004;2023-06-26T08:24:44;96119.63;;;24.72
62932;BMP280;49037;41.898;25.004;2023-06-26T08:27:18;96116.72;;;24.66
62932;BMP280;49037;41.898;25.004;2023-06-26T08:32:57;96133.03;;;24.43
62932;BMP280;49037;41.898;25.004;2023-06-26T08:35:39;96116.13;;;24.27
62932;BMP280;49037;41.898;25.004;2023-06-26T08:38:10;96105.34;;;24.10
62932;BMP280;49037;41.898;25.004;2023-06-26T08:40:45;96121.81;;;24.14
62932;BMP280;49037;41.898;25.004;2023-06-26T08:43:18;96117.91;;;24.19
62932;BMP280;49037;41.898;25.004;2023-06-26T09:00:02;96120.22;;;24.92
62932;BMP280;49037;41.898;25.004;2023-06-26T09:02:46;96115.75;;;24.79
62932;BMP280;49037;41.898;25.004;2023-06-26T09:05:37;96104.88;;;24.81
62932;BMP280;49037;41.898;25.004;2023-06-26T09:08:02;96103.06;;;24.90
62932;BMP280;49037;41.898;25.004;2023-06-26T09:10:44;96109.47;;;25.21
62932;BMP280;49037;41.898;25.004;2023-06-26T09:13:21;96085.25;;;25.60
62932;BMP280;49037;41.898;25.004;2023-06-26T09:16:04;96092.38;;;25.98
62932;BMP280;49037;41.898;25.004;2023-06-26T09:18:35;96094.84;;;26.13
62932;BMP280;49037;41.898;25.004;2023-06-26T09:21:13;96087.56;;;26.24
62932;BMP280;49037;41.898;25.004;2023-06-26T09:23:55;96097.47;;;26.38
62932;BMP280;49037;41.898;25.004;2023-06-26T09:26:21;96107.69;;;26.34
62932;BMP280;49037;41.898;25.004;2023-06-26T09:28:58;96098.16;;;26.37
62932;BMP280;49037;41.898;25.004;2023-06-26T09:31:55;96091.53;;;26.19
62932;BMP280;49037;41.898;25.004;2023-06-26T09:34:41;96092.56;;;25.77
62932;BMP280;49037;41.898;25.004;2023-06-26T09:37:17;96104.09;;;25.48
62932;BMP280;49037;41.898;25.004;2023-06-26T09:40:00;96113.19;;;25.32
62932;BMP280;49037;41.898;25.004;2023-06-26T09:42:52;96120.41;;;24.98
62932;BMP280;49037;41.898;25.004;2023-06-26T09:45:28;96131.13;;;24.90
62932;BMP280;49037;41.898;25.004;2023-06-26T09:48:16;96118.34;;;24.54
62932;BMP280;49037;41.898;25.004;2023-06-26T11:01:55;96061.91;;;27.74
62932;BMP280;49037;41.898;25.004;2023-06-26T11:04:49;96084.72;;;27.48
62932;BMP280;49037;41.898;25.004;2023-06-26T11:11:22;96086.91;;;25.98
62932;BMP280;49037;41.898;25.004;2023-06-26T11:14:15;96102.78;;;25.51
62932;BMP280;49037;41.898;25.004;2023-06-26T11:20:23;96090.13;;;25.13
62932;BMP280;49037;41.898;25.004;2023-06-26T11:23:10;96078.50;;;25.63
62932;BMP280;49037;41.898;25.004;2023-06-26T11:25:54;96087.84;;;25.81
62932;BMP280;49037;41.898;25.004;2023-06-26T14:06:11;96169.41;;;25.62
62932;BMP280;49037;41.898;25.004;2023-06-26T14:08:42;96169.28;;;25.33
62932;BMP280;49037;41.898;25.004;2023-06-26T14:11:07;96166.91;;;25.46
62932;BMP280;49037;41.898;25.004;2023-06-26T14:13:35;96167.81;;;25.30
62932;BMP280;49037;41.898;25.004;2023-06-26T14:16:01;96160.00;;;25.20
62932;BMP280;49037;41.898;25.004;2023-06-26T14:18:35;96164.50;;;25.10
62932;BMP280;49037;41.898;25.004;2023-06-26T14:23:39;96143.84;;;25.28
62932;BMP280;49037;41.898;25.004;2023-06-26T14:27:19;96157.38;;;25.47
62932;BMP280;49037;41.898;25.004;2023-06-26T15:25:34;96130.53;;;26.75
62932;BMP280;49037;41.898;25.004;2023-06-26T15:28:03;96126.94;;;26.67
62932;BMP280;49037;41.898;25.004;2023-06-26T15:30:29;96127.41;;;26.58
62932;BMP280;49037;41.898;25.004;2023-06-26T15:33:03;96133.09;;;26.38
62932;BMP280;49037;41.898;25.004;2023-06-26T15:35:37;96131.34;;;25.97
62932;BMP280;49037;41.898;25.004;2023-06-26T15:38:11;96133.78;;;25.85
62932;BMP280;49037;41.898;25.004;2023-06-26T15:40:42;96129.19;;;25.66
62932;BMP280;49037;41.898;25.004;2023-06-26T15:43:08;96136.47;;;25.33
62932;BMP280;49037;41.898;25.004;2023-06-26T15:45:39;96115.97;;;25.10
62932;BMP280;49037;41.898;25.004;2023-06-26T15:48:10;96118.97;;;24.95
62932;BMP280;49037;41.898;25.004;2023-06-26T15:50:36;96131.28;;;24.75
62932;BMP280;49037;41.898;25.004;2023-06-26T15:53:11;96134.97;;;24.60
62932;BMP280;49037;41.898;25.004;2023-06-26T15:55:43;96126.19;;;24.42
62932;BMP280;49037;41.898;25.004;2023-06-26T15:58:08;96141.81;;;24.40
62932;BMP280;49037;41.898;25.004;2023-06-26T16:00:34;96143.22;;;24.22
62932;BMP280;49037;41.898;25.004;2023-06-26T16:02:59;96133.13;;;24.05
62932;BMP280;49037;41.898;25.004;2023-06-26T16:05:27;96152.88;;;24.03
62932;BMP280;49037;41.898;25.004;2023-06-26T16:07:52;96153.28;;;23.96
62932;BMP280;49037;41.898;25.004;2023-06-26T16:10:21;96153.84;;;23.73
62932;BMP280;49037;41.898;25.004;2023-06-26T16:13:05;96138.72;;;23.51
62932;BMP280;49037;41.898;25.004;2023-06-26T16:15:31;96151.56;;;23.29
62932;BMP280;49037;41.898;25.004;2023-06-26T16:17:59;96161.84;;;23.31
62932;BMP280;49037;41.898;25.004;2023-06-26T16:22:33;96162.06;;;23.19
62932;BMP280;49037;41.898;25.004;2023-06-26T16:27:06;96166.44;;;23.26
62932;BMP280;49037;41.898;25.004;2023-06-26T16:29:32;96171.94;;;23.28
62932;BMP280;49037;41.898;25.004;2023-06-26T16:32:00;96151.19;;;23.19
62932;BMP280;49037;41.898;25.004;2023-06-26T16:34:26;96157.78;;;23.15
62932;BMP280;49037;41.898;25.004;2023-06-26T16:36:53;96164.28;;;23.06
62932;BMP280;49037;41.898;25.004;2023-06-26T16:39:19;96144.94;;;23.00
62932;BMP280;49037;41.898;25.004;2023-06-26T16:41:55;96141.84;;;23.07
62932;BMP280;49037;41.898;25.004;2023-06-26T16:44:41;96144.66;;;23.09
62932;BMP280;49037;41.898;25.004;2023-06-26T16:47:09;96146.13;;;23.12
62932;BMP280;49037;41.898;25.004;2023-06-26T16:49:34;96133.97;;;23.15
62932;BMP280;49037;41.898;25.004;2023-06-26T16:52:00;96149.97;;;23.24
62932;BMP280;49037;41.898;25.004;2023-06-26T16:54:30;96145.22;;;23.25
62932;BMP280;49037;41.898;25.004;2023-06-26T16:56:58;96149.84;;;23.20
62932;BMP280;49037;41.898;25.004;2023-06-26T16:59:25;96160.63;;;23.17
62932;BMP280;49037;41.898;25.004;2023-06-26T17:03:01;96160.06;;;23.20
62932;BMP280;49037;41.898;25.004;2023-06-26T17:05:46;96157.75;;;23.13
62932;BMP280;49037;41.898;25.004;2023-06-26T17:08:15;96167.44;;;23.18
62932;BMP280;49037;41.898;25.004;2023-06-26T17:11:04;96153.53;;;23.10
62932;BMP280;49037;41.898;25.004;2023-06-26T17:13:30;96169.78;;;23.08
62932;BMP280;49037;41.898;25.004;2023-06-26T17:24:16;96206.31;;;22.83
62932;BMP280;49037;41.898;25.004;2023-06-26T17:27:06;96203.19;;;22.74
62932;BMP280;49037;41.898;25.004;2023-06-26T17:29:27;96215.16;;;22.67
62932;BMP280;49037;41.898;25.004;2023-06-26T17:31:52;96239.00;;;22.68
62932;BMP280;49037;41.898;25.004;2023-06-26T17:34:18;96237.22;;;22.57
62932;BMP280;49037;41.898;25.004;2023-06-26T17:36:46;96238.53;;;22.56
62932;BMP280;49037;41.898;25.004;2023-06-26T17:39:12;96241.69;;;22.66
62932;BMP280;49037;41.898;25.004;2023-06-26T17:41:37;96250.00;;;22.70
62932;BMP280;49037;41.898;25.004;2023-06-26T17:44:08;96244.56;;;22.70
62932;BMP280;49037;41.898;25.004;2023-06-26T17:46:34;96238.66;;;22.76
62932;BMP280;49037;41.898;25.004;2023-06-26T17:48:59;96247.31;;;22.87
62932;BMP280;49037;41.898;25.004;2023-06-26T18:07:05;96249.31;;;22.87
62932;BMP280;49037;41.898;25.004;2023-06-26T18:16:18;96251.66;;;22.45
62932;BMP280;49037;41.898;25.004;2023-06-26T18:37:46;96259.75;;;21.97
62932;BMP280;49037;41.898;25.004;2023-06-26T18:40:14;96258.41;;;21.82
62932;BMP280;49037;41.898;25.004;2023-06-26T18:42:43;96259.38;;;21.73
62932;BMP280;49037;41.898;25.004;2023-06-26T18:46:08;96247.19;;;21.46
62932;BMP280;49037;41.898;25.004;2023-06-26T18:51:50;96263.03;;;21.36
62932;BMP280;49037;41.898;25.004;2023-06-26T18:54:59;96255.28;;;21.02
62932;BMP280;49037;41.898;25.004;2023-06-26T18:58:05;96263.53;;;21.04
62932;BMP280;49037;41.898;25.004;2023-06-26T19:00:30;96276.63;;;21.07
